sensor_id;sensor_type;location;lat;lon;timestamp;P1;durP1;ratioP1;P2;durP2;ratioP2
47021;SDS011;32779;52.264;6.154;2024-02-14T00:01:51;10.38;;;5.10;;
47021;SDS011;32779;52.264;6.154;2024-02-14T00:04:17;5.75;;;4.68;;
47021;SDS011;32779;52.264;6.154;2024-02-14T00:06:43;6.15;;;4.68;;
47021;SDS011;32779;52.264;6.154;2024-02-14T00:09:10;6.30;;;4.65;;
47021;SDS011;32779;52.264;6.154;2024-02-14T00:11:36;7.00;;;4.30;;
47021;SDS011;32779;52.264;6.154;2024-02-14T00:14:02;6.28;;;4.68;;
47021;SDS011;32779;52.264;6.154;2024-02-14T00:16:28;7.70;;;4.40;;
47021;SDS011;32779;52.264;6.154;2024-02-14T00:18:56;8.95;;;5.30;;
47021;SDS011;32779;52.264;6.154;2024-02-14T00:21:22;7.45;;;4.35;;
47021;SDS011;32779;52.264;6.154;2024-02-14T00:23:51;10.43;;;4.45;;
47021;SDS011;32779;52.264;6.154;2024-02-14T00:26:17;7.13;;;4.28;;
47021;SDS011;32779;52.264;6.154;2024-02-14T00:28:42;4.97;;;4.03;;
47021;SDS011;32779;52.264;6.154;2024-02-14T00:31:08;6.45;;;3.90;;
47021;SDS011;32779;52.264;6.154;2024-02-14T00:33:34;4.75;;;4.25;;
47021;SDS011;32779;52.264;6.154;2024-02-14T00:35:59;5.63;;;3.85;;
47021;SDS011;32779;52.264;6.154;2024-02-14T00:38:25;5.07;;;3.88;;
47021;SDS011;32779;52.264;6.154;2024-02-14T00:40:50;4.82;;;3.80;;
47021;SDS011;32779;52.264;6.154;2024-02-14T00:43:16;7.30;;;4.50;;
47021;SDS011;32779;52.264;6.154;2024-02-14T00:45:42;6.25;;;4.18;;
47021;SDS011;32779;52.264;6.154;2024-02-14T00:48:07;8.75;;;3.97;;
47021;SDS011;32779;52.264;6.154;2024-02-14T00:50:33;7.47;;;4.07;;
47021;SDS011;32779;52.264;6.154;2024-02-14T00:52:59;6.63;;;3.85;;
47021;SDS011;32779;52.264;6.154;2024-02-14T00:55:25;4.35;;;3.92;;
47021;SDS011;32779;52.264;6.154;2024-02-14T00:57:51;5.70;;;3.90;;
47021;SDS011;32779;52.264;6.154;2024-02-14T01:00:17;4.57;;;3.55;;
47021;SDS011;32779;52.264;6.154;2024-02-14T01:02:42;6.70;;;3.67;;
47021;SDS011;32779;52.264;6.154;2024-02-14T01:05:08;3.83;;;3.45;;
47021;SDS011;32779;52.264;6.154;2024-02-14T01:07:34;7.60;;;3.72;;
47021;SDS011;32779;52.264;6.154;2024-02-14T01:12:26;6.43;;;3.55;;
47021;SDS011;32779;52.264;6.154;2024-02-14T01:14:53;4.97;;;3.30;;
47021;SDS011;32779;52.264;6.154;2024-02-14T01:17:19;4.85;;;3.03;;
47021;SDS011;32779;52.264;6.154;2024-02-14T01:19:44;5.53;;;3.42;;
47021;SDS011;32779;52.264;6.154;2024-02-14T01:24:36;5.00;;;3.30;;
47021;SDS011;32779;52.264;6.154;2024-02-14T01:27:02;5.07;;;3.40;;
47021;SDS011;32779;52.264;6.154;2024-02-14T01:29:28;6.38;;;4.28;;
47021;SDS011;32779;52.264;6.154;2024-02-14T01:31:54;3.92;;;3.35;;
47021;SDS011;32779;52.264;6.154;2024-02-14T01:34:20;4.30;;;3.60;;
47021;SDS011;32779;52.264;6.154;2024-02-14T01:36:47;5.68;;;3.92;;
47021;SDS011;32779;52.264;6.154;2024-02-14T01:39:13;4.10;;;3.63;;
47021;SDS011;32779;52.264;6.154;2024-02-14T01:41:38;4.13;;;3.78;;
47021;SDS011;32779;52.264;6.154;2024-02-14T01:44:10;5.60;;;4.15;;
47021;SDS011;32779;52.264;6.154;2024-02-14T01:46:36;5.93;;;4.57;;
47021;SDS011;32779;52.264;6.154;2024-02-14T01:49:01;6.55;;;5.18;;
47021;SDS011;32779;52.264;6.154;2024-02-14T01:51:28;7.30;;;5.32;;
47021;SDS011;32779;52.264;6.154;2024-02-14T01:53:54;8.70;;;5.53;;
47021;SDS011;32779;52.264;6.154;2024-02-14T01:56:21;6.85;;;5.50;;
47021;SDS011;32779;52.264;6.154;2024-02-14T01:58:46;6.40;;;5.80;;
47021;SDS011;32779;52.264;6.154;2024-02-14T02:01:12;8.05;;;5.53;;
47021;SDS011;32779;52.264;6.154;2024-02-14T02:03:38;7.93;;;5.82;;
47021;SDS011;32779;52.264;6.154;2024-02-14T02:06:05;9.30;;;5.72;;
47021;SDS011;32779;52.264;6.154;2024-02-14T02:08:31;7.75;;;6.72;;
47021;SDS011;32779;52.264;6.154;2024-02-14T02:13:23;7.65;;;6.03;;
47021;SDS011;32779;52.264;6.154;2024-02-14T02:15:48;7.72;;;5.75;;
47021;SDS011;32779;52.264;6.154;2024-02-14T02:18:14;8.68;;;6.25;;
47021;SDS011;32779;52.264;6.154;2024-02-14T02:20:40;6.70;;;5.97;;
47021;SDS011;32779;52.264;6.154;2024-02-14T02:23:08;8.70;;;5.75;;
47021;SDS011;32779;52.264;6.154;2024-02-14T02:25:35;6.45;;;5.50;;
47021;SDS011;32779;52.264;6.154;2024-02-14T02:28:01;8.30;;;6.20;;
47021;SDS011;32779;52.264;6.154;2024-02-14T02:30:26;8.75;;;6.32;;
47021;SDS011;32779;52.264;6.154;2024-02-14T02:32:52;8.55;;;6.57;;
47021;SDS011;32779;52.264;6.154;2024-02-14T02:35:18;7.82;;;6.78;;
47021;SDS011;32779;52.264;6.154;2024-02-14T02:37:46;7.65;;;6.50;;
47021;SDS011;32779;52.264;6.154;2024-02-14T02:40:15;9.63;;;6.25;;
47021;SDS011;32779;52.264;6.154;2024-02-14T02:42:42;9.73;;;6.40;;
47021;SDS011;32779;52.264;6.154;2024-02-14T02:45:10;11.32;;;6.82;;
47021;SDS011;32779;52.264;6.154;2024-02-14T02:47:36;8.43;;;7.07;;
47021;SDS011;32779;52.264;6.154;2024-02-14T02:50:01;9.40;;;6.65;;
47021;SDS011;32779;52.264;6.154;2024-02-14T02:52:28;11.18;;;7.35;;
47021;SDS011;32779;52.264;6.154;2024-02-14T02:54:55;12.57;;;7.30;;
47021;SDS011;32779;52.264;6.154;2024-02-14T02:57:21;9.05;;;7.57;;
47021;SDS011;32779;52.264;6.154;2024-02-14T02:59:47;9.05;;;6.78;;
47021;SDS011;32779;52.264;6.154;2024-02-14T03:02:13;12.70;;;7.68;;
47021;SDS011;32779;52.264;6.154;2024-02-14T03:04:42;9.27;;;7.57;;
47021;SDS011;32779;52.264;6.154;2024-02-14T03:07:08;9.82;;;7.68;;
47021;SDS011;32779;52.264;6.154;2024-02-14T03:09:34;10.52;;;7.60;;
47021;SDS011;32779;52.264;6.154;2024-02-14T03:12:01;8.00;;;7.15;;
47021;SDS011;32779;52.264;6.154;2024-02-14T03:14:31;9.57;;;7.07;;
47021;SDS011;32779;52.264;6.154;2024-02-14T03:17:01;11.70;;;7.70;;
47021;SDS011;32779;52.264;6.154;2024-02-14T03:19:27;8.93;;;6.80;;
47021;SDS011;32779;52.264;6.154;2024-02-14T03:24:20;8.38;;;6.95;;
47021;SDS011;32779;52.264;6.154;2024-02-14T03:26:46;8.98;;;6.28;;
47021;SDS011;32779;52.264;6.154;2024-02-14T03:29:11;6.40;;;5.55;;
47021;SDS011;32779;52.264;6.154;2024-02-14T03:31:37;9.38;;;5.85;;
47021;SDS011;32779;52.264;6.154;2024-02-14T03:36:30;5.82;;;5.22;;
47021;SDS011;32779;52.264;6.154;2024-02-14T03:41:22;6.30;;;5.40;;
47021;SDS011;32779;52.264;6.154;2024-02-14T03:43:47;6.15;;;5.32;;
47021;SDS011;32779;52.264;6.154;2024-02-14T03:46:14;5.85;;;5.22;;
47021;SDS011;32779;52.264;6.154;2024-02-14T03:48:40;6.07;;;5.47;;
47021;SDS011;32779;52.264;6.154;2024-02-14T03:51:08;6.25;;;5.05;;
47021;SDS011;32779;52.264;6.154;2024-02-14T03:53:33;5.72;;;5.13;;
47021;SDS011;32779;52.264;6.154;2024-02-14T03:55:59;5.20;;;4.70;;
47021;SDS011;32779;52.264;6.154;2024-02-14T03:58:25;6.05;;;4.63;;
47021;SDS011;32779;52.264;6.154;2024-02-14T04:00:51;5.75;;;4.80;;
47021;SDS011;32779;52.264;6.154;2024-02-14T04:03:17;5.32;;;4.82;;
47021;SDS011;32779;52.264;6.154;2024-02-14T04:05:43;7.13;;;5.03;;
47021;SDS011;32779;52.264;6.154;2024-02-14T04:08:10;7.95;;;5.70;;
47021;SDS011;32779;52.264;6.154;2024-02-14T04:13:05;6.72;;;4.68;;
47021;SDS011;32779;52.264;6.154;2024-02-14T04:15:31;5.38;;;4.90;;
47021;SDS011;32779;52.264;6.154;2024-02-14T04:17:57;5.53;;;5.03;;
47021;SDS011;32779;52.264;6.154;2024-02-14T04:20:24;7.53;;;5.65;;
47021;SDS011;32779;52.264;6.154;2024-02-14T04:22:50;7.63;;;6.43;;
47021;SDS011;32779;52.264;6.154;2024-02-14T04:25:16;6.63;;;6.03;;
47021;SDS011;32779;52.264;6.154;2024-02-14T04:27:42;7.72;;;6.93;;
47021;SDS011;32779;52.264;6.154;2024-02-14T04:30:07;9.80;;;8.35;;
47021;SDS011;32779;52.264;6.154;2024-02-14T04:32:33;8.65;;;7.75;;
47021;SDS011;32779;52.264;6.154;2024-02-14T04:34:59;9.38;;;8.48;;
47021;SDS011;32779;52.264;6.154;2024-02-14T04:37:24;11.45;;;9.43;;
47021;SDS011;32779;52.264;6.154;2024-02-14T04:39:50;10.65;;;9.55;;
47021;SDS011;32779;52.264;6.154;2024-02-14T04:42:15;11.65;;;9.50;;
47021;SDS011;32779;52.264;6.154;2024-02-14T04:44:41;11.18;;;9.88;;
47021;SDS011;32779;52.264;6.154;2024-02-14T04:47:07;12.27;;;10.45;;
47021;SDS011;32779;52.264;6.154;2024-02-14T04:49:34;16.60;;;10.82;;
47021;SDS011;32779;52.264;6.154;2024-02-14T04:52:00;13.65;;;11.35;;
47021;SDS011;32779;52.264;6.154;2024-02-14T04:54:26;17.70;;;12.05;;
47021;SDS011;32779;52.264;6.154;2024-02-14T04:56:52;13.95;;;11.55;;
47021;SDS011;32779;52.264;6.154;2024-02-14T04:59:18;18.63;;;13.50;;
47021;SDS011;32779;52.264;6.154;2024-02-14T05:04:10;19.98;;;13.75;;
47021;SDS011;32779;52.264;6.154;2024-02-14T05:06:37;22.40;;;14.38;;
47021;SDS011;32779;52.264;6.154;2024-02-14T05:09:03;20.05;;;15.35;;
47021;SDS011;32779;52.264;6.154;2024-02-14T05:11:30;20.98;;;15.45;;
47021;SDS011;32779;52.264;6.154;2024-02-14T05:13:55;19.35;;;15.45;;
47021;SDS011;32779;52.264;6.154;2024-02-14T05:16:21;20.63;;;16.23;;
47021;SDS011;32779;52.264;6.154;2024-02-14T05:18:46;23.52;;;17.05;;
47021;SDS011;32779;52.264;6.154;2024-02-14T05:23:38;23.75;;;17.42;;
47021;SDS011;32779;52.264;6.154;2024-02-14T05:26:04;27.35;;;18.27;;
47021;SDS011;32779;52.264;6.154;2024-02-14T05:28:30;24.70;;;16.98;;
47021;SDS011;32779;52.264;6.154;2024-02-14T05:30:56;27.75;;;17.73;;
47021;SDS011;32779;52.264;6.154;2024-02-14T05:33:22;26.85;;;18.23;;
47021;SDS011;32779;52.264;6.154;2024-02-14T05:35:51;28.63;;;18.40;;
47021;SDS011;32779;52.264;6.154;2024-02-14T05:38:17;25.17;;;18.45;;
47021;SDS011;32779;52.264;6.154;2024-02-14T05:40:46;24.88;;;18.60;;
47021;SDS011;32779;52.264;6.154;2024-02-14T05:43:12;23.55;;;17.95;;
47021;SDS011;32779;52.264;6.154;2024-02-14T05:45:38;30.15;;;18.52;;
47021;SDS011;32779;52.264;6.154;2024-02-14T05:48:03;25.95;;;18.73;;
47021;SDS011;32779;52.264;6.154;2024-02-14T05:50:29;25.42;;;18.70;;
47021;SDS011;32779;52.264;6.154;2024-02-14T05:52:55;27.70;;;19.05;;
47021;SDS011;32779;52.264;6.154;2024-02-14T05:55:22;25.10;;;19.70;;
47021;SDS011;32779;52.264;6.154;2024-02-14T05:57:48;27.95;;;18.58;;
47021;SDS011;32779;52.264;6.154;2024-02-14T06:00:15;27.05;;;20.55;;
47021;SDS011;32779;52.264;6.154;2024-02-14T06:02:41;31.83;;;21.50;;
47021;SDS011;32779;52.264;6.154;2024-02-14T06:05:07;30.88;;;21.05;;
47021;SDS011;32779;52.264;6.154;2024-02-14T06:07:39;34.33;;;22.05;;
47021;SDS011;32779;52.264;6.154;2024-02-14T06:10:05;33.78;;;22.30;;
47021;SDS011;32779;52.264;6.154;2024-02-14T06:12:32;34.55;;;22.38;;
47021;SDS011;32779;52.264;6.154;2024-02-14T06:14:58;30.15;;;21.50;;
47021;SDS011;32779;52.264;6.154;2024-02-14T06:17:23;27.75;;;21.38;;
47021;SDS011;32779;52.264;6.154;2024-02-14T06:19:51;28.33;;;22.00;;
47021;SDS011;32779;52.264;6.154;2024-02-14T06:22:17;31.52;;;22.00;;
47021;SDS011;32779;52.264;6.154;2024-02-14T06:24:42;28.27;;;22.90;;
47021;SDS011;32779;52.264;6.154;2024-02-14T06:27:08;30.02;;;21.60;;
47021;SDS011;32779;52.264;6.154;2024-02-14T06:29:33;27.00;;;20.90;;
47021;SDS011;32779;52.264;6.154;2024-02-14T06:31:59;27.77;;;22.20;;
47021;SDS011;32779;52.264;6.154;2024-02-14T06:34:25;27.85;;;21.15;;
47021;SDS011;32779;52.264;6.154;2024-02-14T06:36:52;28.58;;;21.95;;
47021;SDS011;32779;52.264;6.154;2024-02-14T06:39:18;28.83;;;21.40;;
47021;SDS011;32779;52.264;6.154;2024-02-14T06:41:45;28.35;;;21.65;;
47021;SDS011;32779;52.264;6.154;2024-02-14T06:44:12;28.02;;;21.42;;
47021;SDS011;32779;52.264;6.154;2024-02-14T06:46:37;30.67;;;21.98;;
47021;SDS011;32779;52.264;6.154;2024-02-14T06:49:03;27.88;;;21.45;;
47021;SDS011;32779;52.264;6.154;2024-02-14T06:51:29;26.77;;;20.48;;
47021;SDS011;32779;52.264;6.154;2024-02-14T06:53:55;24.10;;;20.63;;
47021;SDS011;32779;52.264;6.154;2024-02-14T06:56:21;24.77;;;19.25;;
47021;SDS011;32779;52.264;6.154;2024-02-14T06:58:47;25.92;;;18.85;;
47021;SDS011;32779;52.264;6.154;2024-02-14T07:01:17;25.20;;;19.30;;
47021;SDS011;32779;52.264;6.154;2024-02-14T07:03:46;22.30;;;17.95;;
47021;SDS011;32779;52.264;6.154;2024-02-14T07:06:12;23.95;;;18.85;;
47021;SDS011;32779;52.264;6.154;2024-02-14T07:08:40;20.88;;;17.00;;
47021;SDS011;32779;52.264;6.154;2024-02-14T07:11:06;18.48;;;16.27;;
47021;SDS011;32779;52.264;6.154;2024-02-14T07:13:31;18.65;;;15.70;;
47021;SDS011;32779;52.264;6.154;2024-02-14T07:15:57;18.38;;;15.63;;
47021;SDS011;32779;52.264;6.154;2024-02-14T07:18:22;18.70;;;15.27;;
47021;SDS011;32779;52.264;6.154;2024-02-14T07:20:48;20.15;;;14.80;;
47021;SDS011;32779;52.264;6.154;2024-02-14T07:23:13;18.52;;;14.65;;
47021;SDS011;32779;52.264;6.154;2024-02-14T07:25:39;18.63;;;15.20;;
47021;SDS011;32779;52.264;6.154;2024-02-14T07:28:05;16.63;;;14.73;;
47021;SDS011;32779;52.264;6.154;2024-02-14T07:30:30;16.70;;;14.20;;
47021;SDS011;32779;52.264;6.154;2024-02-14T07:32:56;16.00;;;14.27;;
47021;SDS011;32779;52.264;6.154;2024-02-14T07:35:22;17.20;;;14.38;;
47021;SDS011;32779;52.264;6.154;2024-02-14T07:37:48;16.92;;;14.70;;
47021;SDS011;32779;52.264;6.154;2024-02-14T07:40:13;14.77;;;13.27;;
47021;SDS011;32779;52.264;6.154;2024-02-14T07:42:40;14.20;;;12.55;;
47021;SDS011;32779;52.264;6.154;2024-02-14T07:45:06;15.90;;;12.73;;
47021;SDS011;32779;52.264;6.154;2024-02-14T07:47:32;14.95;;;12.73;;
47021;SDS011;32779;52.264;6.154;2024-02-14T07:49:57;14.82;;;11.60;;
47021;SDS011;32779;52.264;6.154;2024-02-14T07:52:23;12.75;;;11.35;;
47021;SDS011;32779;52.264;6.154;2024-02-14T07:54:55;13.80;;;11.52;;
47021;SDS011;32779;52.264;6.154;2024-02-14T07:57:24;14.43;;;11.18;;
47021;SDS011;32779;52.264;6.154;2024-02-14T07:59:53;11.07;;;9.88;;
47021;SDS011;32779;52.264;6.154;2024-02-14T08:02:19;14.48;;;11.27;;
47021;SDS011;32779;52.264;6.154;2024-02-14T08:07:10;13.20;;;10.82;;
47021;SDS011;32779;52.264;6.154;2024-02-14T08:09:36;13.98;;;11.77;;
47021;SDS011;32779;52.264;6.154;2024-02-14T08:12:03;16.30;;;11.75;;
47021;SDS011;32779;52.264;6.154;2024-02-14T08:14:30;15.45;;;12.20;;
47021;SDS011;32779;52.264;6.154;2024-02-14T08:16:56;14.43;;;12.75;;
47021;SDS011;32779;52.264;6.154;2024-02-14T08:19:21;18.50;;;13.05;;
47021;SDS011;32779;52.264;6.154;2024-02-14T08:21:47;14.75;;;12.65;;
47021;SDS011;32779;52.264;6.154;2024-02-14T08:24:13;15.20;;;13.55;;
47021;SDS011;32779;52.264;6.154;2024-02-14T08:26:38;16.70;;;14.65;;
47021;SDS011;32779;52.264;6.154;2024-02-14T08:29:04;18.70;;;14.80;;
47021;SDS011;32779;52.264;6.154;2024-02-14T08:31:29;18.75;;;14.88;;
47021;SDS011;32779;52.264;6.154;2024-02-14T08:33:55;18.33;;;14.80;;
47021;SDS011;32779;52.264;6.154;2024-02-14T08:36:21;18.90;;;16.27;;
47021;SDS011;32779;52.264;6.154;2024-02-14T08:38:47;22.27;;;15.98;;
47021;SDS011;32779;52.264;6.154;2024-02-14T08:41:13;17.30;;;15.02;;
47021;SDS011;32779;52.264;6.154;2024-02-14T08:46:09;16.85;;;14.82;;
47021;SDS011;32779;52.264;6.154;2024-02-14T08:48:37;17.85;;;15.23;;
47021;SDS011;32779;52.264;6.154;2024-02-14T08:51:10;18.75;;;16.30;;
47021;SDS011;32779;52.264;6.154;2024-02-14T08:53:37;21.25;;;16.15;;
47021;SDS011;32779;52.264;6.154;2024-02-14T08:56:03;23.27;;;17.48;;
47021;SDS011;32779;52.264;6.154;2024-02-14T09:00:55;21.75;;;16.17;;
47021;SDS011;32779;52.264;6.154;2024-02-14T09:03:20;20.50;;;17.02;;
47021;SDS011;32779;52.264;6.154;2024-02-14T09:05:46;21.27;;;17.17;;
47021;SDS011;32779;52.264;6.154;2024-02-14T09:08:12;22.48;;;18.38;;
47021;SDS011;32779;52.264;6.154;2024-02-14T09:10:38;22.08;;;17.42;;
47021;SDS011;32779;52.264;6.154;2024-02-14T09:13:04;23.88;;;17.55;;
47021;SDS011;32779;52.264;6.154;2024-02-14T09:15:32;21.48;;;18.02;;
47021;SDS011;32779;52.264;6.154;2024-02-14T09:17:57;23.08;;;18.17;;
47021;SDS011;32779;52.264;6.154;2024-02-14T09:20:25;22.83;;;17.80;;
47021;SDS011;32779;52.264;6.154;2024-02-14T09:22:50;20.58;;;17.25;;
47021;SDS011;32779;52.264;6.154;2024-02-14T09:25:16;21.85;;;16.35;;
47021;SDS011;32779;52.264;6.154;2024-02-14T09:27:42;17.60;;;15.00;;
47021;SDS011;32779;52.264;6.154;2024-02-14T09:30:08;20.40;;;15.77;;
47021;SDS011;32779;52.264;6.154;2024-02-14T09:32:34;18.02;;;15.48;;
47021;SDS011;32779;52.264;6.154;2024-02-14T09:35:00;17.20;;;14.70;;
47021;SDS011;32779;52.264;6.154;2024-02-14T09:37:26;16.48;;;13.85;;
47021;SDS011;32779;52.264;6.154;2024-02-14T09:39:53;18.88;;;14.80;;
47021;SDS011;32779;52.264;6.154;2024-02-14T09:42:19;20.13;;;14.98;;
47021;SDS011;32779;52.264;6.154;2024-02-14T09:44:58;19.88;;;15.02;;
47021;SDS011;32779;52.264;6.154;2024-02-14T09:47:25;19.83;;;15.45;;
47021;SDS011;32779;52.264;6.154;2024-02-14T09:49:54;18.38;;;14.57;;
47021;SDS011;32779;52.264;6.154;2024-02-14T09:52:21;18.85;;;14.85;;
47021;SDS011;32779;52.264;6.154;2024-02-14T09:54:48;18.58;;;14.98;;
47021;SDS011;32779;52.264;6.154;2024-02-14T09:57:16;19.17;;;14.85;;
47021;SDS011;32779;52.264;6.154;2024-02-14T09:59:42;16.25;;;13.88;;
47021;SDS011;32779;52.264;6.154;2024-02-14T10:02:09;16.17;;;13.60;;
47021;SDS011;32779;52.264;6.154;2024-02-14T10:04:35;17.50;;;12.65;;
47021;SDS011;32779;52.264;6.154;2024-02-14T10:07:02;14.38;;;12.15;;
47021;SDS011;32779;52.264;6.154;2024-02-14T10:09:29;14.95;;;11.80;;
47021;SDS011;32779;52.264;6.154;2024-02-14T10:11:55;13.75;;;11.77;;
47021;SDS011;32779;52.264;6.154;2024-02-14T10:14:22;12.98;;;10.57;;
47021;SDS011;32779;52.264;6.154;2024-02-14T10:19:14;11.55;;;9.63;;
47021;SDS011;32779;52.264;6.154;2024-02-14T10:21:41;12.27;;;9.88;;
47021;SDS011;32779;52.264;6.154;2024-02-14T10:24:07;11.10;;;9.95;;
47021;SDS011;32779;52.264;6.154;2024-02-14T10:26:34;12.18;;;10.88;;
47021;SDS011;32779;52.264;6.154;2024-02-14T10:29:00;11.20;;;9.95;;
47021;SDS011;32779;52.264;6.154;2024-02-14T10:31:25;12.10;;;10.73;;
47021;SDS011;32779;52.264;6.154;2024-02-14T10:36:19;13.63;;;11.13;;
47021;SDS011;32779;52.264;6.154;2024-02-14T10:38:46;13.80;;;11.15;;
47021;SDS011;32779;52.264;6.154;2024-02-14T10:41:14;12.75;;;11.43;;
47021;SDS011;32779;52.264;6.154;2024-02-14T10:43:41;14.75;;;11.63;;
47021;SDS011;32779;52.264;6.154;2024-02-14T10:46:12;13.80;;;12.13;;
47021;SDS011;32779;52.264;6.154;2024-02-14T10:48:52;13.00;;;11.60;;
47021;SDS011;32779;52.264;6.154;2024-02-14T10:51:23;12.57;;;11.27;;
47021;SDS011;32779;52.264;6.154;2024-02-14T10:53:53;13.32;;;11.13;;
47021;SDS011;32779;52.264;6.154;2024-02-14T10:56:21;13.85;;;10.93;;
47021;SDS011;32779;52.264;6.154;2024-02-14T10:58:49;13.15;;;11.48;;
47021;SDS011;32779;52.264;6.154;2024-02-14T11:01:20;13.13;;;11.75;;
47021;SDS011;32779;52.264;6.154;2024-02-14T11:03:47;15.82;;;12.80;;
47021;SDS011;32779;52.264;6.154;2024-02-14T11:06:17;14.98;;;12.60;;
47021;SDS011;32779;52.264;6.154;2024-02-14T11:08:53;17.40;;;12.98;;
47021;SDS011;32779;52.264;6.154;2024-02-14T11:11:28;17.83;;;13.18;;
47021;SDS011;32779;52.264;6.154;2024-02-14T11:13:55;24.35;;;14.02;;
47021;SDS011;32779;52.264;6.154;2024-02-14T11:16:25;16.73;;;13.80;;
47021;SDS011;32779;52.264;6.154;2024-02-14T11:18:53;20.88;;;13.75;;
47021;SDS011;32779;52.264;6.154;2024-02-14T11:21:42;17.15;;;13.88;;
47021;SDS011;32779;52.264;6.154;2024-02-14T11:24:11;19.00;;;13.95;;
47021;SDS011;32779;52.264;6.154;2024-02-14T11:26:49;18.90;;;13.60;;
47021;SDS011;32779;52.264;6.154;2024-02-14T11:29:20;17.85;;;13.27;;
47021;SDS011;32779;52.264;6.154;2024-02-14T11:31:59;15.40;;;12.90;;
47021;SDS011;32779;52.264;6.154;2024-02-14T11:34:27;20.88;;;14.13;;
47021;SDS011;32779;52.264;6.154;2024-02-14T11:36:53;21.75;;;13.45;;
47021;SDS011;32779;52.264;6.154;2024-02-14T11:39:20;17.52;;;13.70;;
47021;SDS011;32779;52.264;6.154;2024-02-14T11:41:45;17.92;;;14.55;;
47021;SDS011;32779;52.264;6.154;2024-02-14T11:44:11;15.93;;;13.27;;
47021;SDS011;32779;52.264;6.154;2024-02-14T11:46:37;18.40;;;14.13;;
47021;SDS011;32779;52.264;6.154;2024-02-14T11:49:03;16.30;;;13.57;;
47021;SDS011;32779;52.264;6.154;2024-02-14T11:51:31;18.13;;;14.02;;
47021;SDS011;32779;52.264;6.154;2024-02-14T11:54:04;14.48;;;13.00;;
47021;SDS011;32779;52.264;6.154;2024-02-14T11:56:32;14.52;;;13.02;;
47021;SDS011;32779;52.264;6.154;2024-02-14T11:59:01;17.15;;;12.48;;
47021;SDS011;32779;52.264;6.154;2024-02-14T12:01:31;15.18;;;12.73;;
47021;SDS011;32779;52.264;6.154;2024-02-14T12:04:01;13.98;;;12.35;;
47021;SDS011;32779;52.264;6.154;2024-02-14T12:06:29;18.58;;;12.48;;
47021;SDS011;32779;52.264;6.154;2024-02-14T12:09:00;13.95;;;11.75;;
47021;SDS011;32779;52.264;6.154;2024-02-14T12:11:37;14.55;;;11.90;;
47021;SDS011;32779;52.264;6.154;2024-02-14T12:14:06;17.90;;;11.30;;
47021;SDS011;32779;52.264;6.154;2024-02-14T12:16:33;16.77;;;11.88;;
47021;SDS011;32779;52.264;6.154;2024-02-14T12:19:04;14.60;;;10.20;;
47021;SDS011;32779;52.264;6.154;2024-02-14T12:21:33;13.65;;;10.30;;
47021;SDS011;32779;52.264;6.154;2024-02-14T12:24:00;15.20;;;10.70;;
47021;SDS011;32779;52.264;6.154;2024-02-14T12:26:25;13.70;;;9.63;;
47021;SDS011;32779;52.264;6.154;2024-02-14T12:28:51;13.75;;;9.63;;
47021;SDS011;32779;52.264;6.154;2024-02-14T12:31:22;15.43;;;10.77;;
47021;SDS011;32779;52.264;6.154;2024-02-14T12:33:48;10.27;;;8.70;;
47021;SDS011;32779;52.264;6.154;2024-02-14T12:36:15;12.45;;;9.05;;
47021;SDS011;32779;52.264;6.154;2024-02-14T12:38:40;14.55;;;9.13;;
47021;SDS011;32779;52.264;6.154;2024-02-14T12:41:06;10.23;;;8.75;;
47021;SDS011;32779;52.264;6.154;2024-02-14T12:43:31;10.05;;;8.38;;
47021;SDS011;32779;52.264;6.154;2024-02-14T12:45:57;12.38;;;9.23;;
47021;SDS011;32779;52.264;6.154;2024-02-14T12:50:51;9.23;;;8.15;;
47021;SDS011;32779;52.264;6.154;2024-02-14T12:53:17;13.77;;;7.85;;
47021;SDS011;32779;52.264;6.154;2024-02-14T12:55:44;10.95;;;8.60;;
47021;SDS011;32779;52.264;6.154;2024-02-14T12:58:10;10.32;;;8.13;;
47021;SDS011;32779;52.264;6.154;2024-02-14T13:00:36;12.02;;;8.05;;
47021;SDS011;32779;52.264;6.154;2024-02-14T13:03:02;12.65;;;8.15;;
47021;SDS011;32779;52.264;6.154;2024-02-14T13:05:29;10.88;;;8.10;;
47021;SDS011;32779;52.264;6.154;2024-02-14T13:07:55;9.02;;;7.25;;
47021;SDS011;32779;52.264;6.154;2024-02-14T13:10:20;10.45;;;6.78;;
47021;SDS011;32779;52.264;6.154;2024-02-14T13:12:47;12.43;;;7.80;;
47021;SDS011;32779;52.264;6.154;2024-02-14T13:15:12;9.45;;;7.07;;
47021;SDS011;32779;52.264;6.154;2024-02-14T13:17:38;10.13;;;6.90;;
47021;SDS011;32779;52.264;6.154;2024-02-14T13:20:04;8.45;;;6.32;;
47021;SDS011;32779;52.264;6.154;2024-02-14T13:22:30;7.55;;;5.95;;
47021;SDS011;32779;52.264;6.154;2024-02-14T13:24:56;7.15;;;5.50;;
47021;SDS011;32779;52.264;6.154;2024-02-14T13:27:21;8.05;;;5.95;;
47021;SDS011;32779;52.264;6.154;2024-02-14T13:29:48;8.70;;;5.63;;
47021;SDS011;32779;52.264;6.154;2024-02-14T13:32:14;7.43;;;5.35;;
47021;SDS011;32779;52.264;6.154;2024-02-14T13:34:40;7.13;;;5.22;;
47021;SDS011;32779;52.264;6.154;2024-02-14T13:37:05;7.43;;;4.43;;
47021;SDS011;32779;52.264;6.154;2024-02-14T13:41:57;6.05;;;4.25;;
47021;SDS011;32779;52.264;6.154;2024-02-14T13:44:24;7.95;;;3.95;;
47021;SDS011;32779;52.264;6.154;2024-02-14T13:46:50;5.45;;;4.72;;
47021;SDS011;32779;52.264;6.154;2024-02-14T13:49:17;5.10;;;4.10;;
47021;SDS011;32779;52.264;6.154;2024-02-14T13:51:55;3.63;;;3.30;;
47021;SDS011;32779;52.264;6.154;2024-02-14T13:54:23;5.55;;;3.80;;
47021;SDS011;32779;52.264;6.154;2024-02-14T13:59:15;5.13;;;3.30;;
47021;SDS011;32779;52.264;6.154;2024-02-14T14:04:07;4.13;;;3.03;;
47021;SDS011;32779;52.264;6.154;2024-02-14T14:06:32;4.13;;;2.95;;
47021;SDS011;32779;52.264;6.154;2024-02-14T14:08:59;2.72;;;2.50;;
47021;SDS011;32779;52.264;6.154;2024-02-14T14:11:25;2.30;;;2.10;;
47021;SDS011;32779;52.264;6.154;2024-02-14T14:13:50;2.47;;;2.20;;
47021;SDS011;32779;52.264;6.154;2024-02-14T14:16:16;5.85;;;2.67;;
47021;SDS011;32779;52.264;6.154;2024-02-14T14:18:42;3.05;;;2.60;;
47021;SDS011;32779;52.264;6.154;2024-02-14T14:21:08;6.60;;;2.97;;
47021;SDS011;32779;52.264;6.154;2024-02-14T14:23:34;2.30;;;2.10;;
47021;SDS011;32779;52.264;6.154;2024-02-14T14:25:59;2.22;;;2.00;;
47021;SDS011;32779;52.264;6.154;2024-02-14T14:30:52;3.20;;;2.40;;
47021;SDS011;32779;52.264;6.154;2024-02-14T14:33:21;4.32;;;3.05;;
47021;SDS011;32779;52.264;6.154;2024-02-14T14:35:47;4.88;;;2.97;;
47021;SDS011;32779;52.264;6.154;2024-02-14T14:38:15;3.35;;;3.00;;
47021;SDS011;32779;52.264;6.154;2024-02-14T14:40:41;2.88;;;2.63;;
47021;SDS011;32779;52.264;6.154;2024-02-14T14:43:06;3.42;;;2.50;;
47021;SDS011;32779;52.264;6.154;2024-02-14T14:45:35;5.53;;;2.67;;
47021;SDS011;32779;52.264;6.154;2024-02-14T14:50:26;3.38;;;2.55;;
47021;SDS011;32779;52.264;6.154;2024-02-14T14:52:52;3.53;;;2.55;;
47021;SDS011;32779;52.264;6.154;2024-02-14T14:55:18;2.53;;;2.33;;
47021;SDS011;32779;52.264;6.154;2024-02-14T14:57:44;2.60;;;2.40;;
47021;SDS011;32779;52.264;6.154;2024-02-14T15:00:10;6.45;;;2.67;;
47021;SDS011;32779;52.264;6.154;2024-02-14T15:02:39;2.80;;;2.60;;
47021;SDS011;32779;52.264;6.154;2024-02-14T15:05:07;3.15;;;2.22;;
47021;SDS011;32779;52.264;6.154;2024-02-14T15:07:36;6.50;;;2.63;;
47021;SDS011;32779;52.264;6.154;2024-02-14T15:10:05;2.85;;;2.65;;
47021;SDS011;32779;52.264;6.154;2024-02-14T15:12:33;3.15;;;2.85;;
47021;SDS011;32779;52.264;6.154;2024-02-14T15:15:01;3.70;;;3.35;;
47021;SDS011;32779;52.264;6.154;2024-02-14T15:17:27;5.55;;;4.00;;
47021;SDS011;32779;52.264;6.154;2024-02-14T15:19:54;4.60;;;4.20;;